Time;durP1;ratioP1;P1;durP2;ratioP2;P2;SDS_P1;SDS_P2;PMS_P1;PMS_P2;Temp;Humidity;BMP_temperature;BMP_pressure;BME280_temperature;BME280_humidity;BME280_pressure;Samples;Min_cycle;Max_cycle;Signal;HPM_P1;HPM_P2
2023/10/24 00:00:52;;;;;;;;;;;;;;;14.60;40.78;100982.63;5075783;28;19916;-67
2023/10/24 00:03:20;;;;;;;;;;;;;;;14.62;40.54;100977.84;5075415;28;19920;-67
2023/10/24 00:05:47;;;;;;;;;;;;;;;14.61;40.78;100980.75;5073441;28;20453;-67
2023/10/24 00:08:13;;;;;;;;;;;;;;;14.62;40.43;100977.84;5074392;28;19917;-67
2023/10/24 00:10:38;;;;;;;;;;;;;;;14.60;40.52;100985.34;5077892;28;19927;-67
2023/10/24 00:13:03;;;;;;;;;;;;;;;14.60;40.56;100988.03;5097438;28;19912;-67
2023/10/24 00:15:29;;;;;;;;;;;;;;;14.59;40.26;100977.44;5097787;28;19939;-67
2023/10/24 00:17:54;;;;;;;;;;;;;;;14.59;40.38;100982.84;5113629;28;20347;-67
2023/10/24 00:20:19;;;;;;;;;;;;;;;14.58;40.45;100982.00;5097235;28;19915;-67
2023/10/24 00:22:44;;;;;;;;;;;;;;;14.58;40.54;100982.00;5097156;28;19962;-67
2023/10/24 00:25:10;;;;;;;;;;;;;;;14.59;40.32;100988.25;5097439;28;20288;-67
2023/10/24 00:27:35;;;;;;;;;;;;;;;14.59;40.41;100983.66;5097700;28;19912;-67
2023/10/24 00:30:00;;;;;;;;;;;;;;;14.60;40.65;100984.47;5097412;28;19915;-67
2023/10/24 00:32:26;;;;;;;;;;;;;;;14.61;40.50;100978.03;5097194;28;19912;-67
2023/10/24 00:34:51;;;;;;;;;;;;;;;14.57;40.63;100988.44;5096650;28;19912;-67
2023/10/24 00:37:16;;;;;;;;;;;;;;;14.57;40.44;100991.13;5078880;28;19919;-67
2023/10/24 00:39:41;;;;;;;;;;;;;;;14.59;40.79;100994.47;5097111;28;19919;-67
2023/10/24 00:42:07;;;;;;;;;;;;;;;14.65;40.47;100993.66;5097063;28;19958;-67
2023/10/24 00:44:32;;;;;;;;;;;;;;;14.69;40.32;100997.59;5097315;28;19962;-67
2023/10/24 00:46:58;;;;;;;;;;;;;;;14.67;40.28;100999.69;5078842;28;19912;-67
2023/10/24 00:49:24;;;;;;;;;;;;;;;14.70;40.38;100998.44;5097240;28;19913;-67
2023/10/24 00:51:49;;;;;;;;;;;;;;;14.71;40.45;101000.94;5111637;28;19912;-67
2023/10/24 00:54:15;;;;;;;;;;;;;;;14.71;40.46;101000.94;5117097;28;19912;-67
2023/10/24 00:56:43;;;;;;;;;;;;;;;14.72;40.40;101001.75;5116902;28;19973;-67
2023/10/24 00:59:08;;;;;;;;;;;;;;;14.76;40.32;101008.41;5113196;28;19912;-68
2023/10/24 01:01:34;;;;;;;;;;;;;;;14.78;40.29;101011.72;5093502;28;20315;-68
2023/10/24 01:03:59;;;;;;;;;;;;;;;14.81;40.32;101013.19;5076403;28;19916;-68
2023/10/24 01:06:26;;;;;;;;;;;;;;;14.80;40.20;101009.66;5092082;28;20415;-68
2023/10/24 01:08:51;;;;;;;;;;;;;;;14.81;40.29;101013.19;5093870;28;20368;-68
2023/10/24 01:11:16;;;;;;;;;;;;;;;14.80;40.41;101015.09;5096184;28;19927;-68
2023/10/24 01:13:42;;;;;;;;;;;;;;;14.81;39.95;101019.44;5096423;28;19916;-68
2023/10/24 01:16:07;;;;;;;;;;;;;;;14.80;40.35;101011.53;5097471;28;19919;-68
2023/10/24 01:18:33;;;;;;;;;;;;;;;14.80;40.22;101011.53;5116843;28;19916;-68
2023/10/24 01:20:58;;;;;;;;;;;;;;;14.83;40.40;101014.66;5116432;28;19943;-68
2023/10/24 01:23:26;;;;;;;;;;;;;;;14.81;40.18;101013.19;5116477;28;20338;-68
2023/10/24 01:25:52;;;;;;;;;;;;;;;14.83;40.26;101011.13;5104169;28;19920;-68
2023/10/24 01:28:17;;;;;;;;;;;;;;;14.81;40.17;101014.03;5095949;28;19912;-68
2023/10/24 01:30:43;;;;;;;;;;;;;;;14.80;40.25;101019.63;5096421;28;20340;-68
2023/10/24 01:33:08;;;;;;;;;;;;;;;14.80;40.31;101016.94;5096005;28;19912;-68
2023/10/24 01:35:34;;;;;;;;;;;;;;;14.77;40.38;101014.66;5101090;28;19965;-68
2023/10/24 01:37:59;;;;;;;;;;;;;;;14.74;40.57;101018.59;5095843;28;19920;-68
2023/10/24 01:40:25;;;;;;;;;;;;;;;14.75;40.58;101014.88;5077770;28;19965;-68
2023/10/24 01:42:50;;;;;;;;;;;;;;;14.76;40.66;101011.09;5096047;28;20377;-68
2023/10/24 01:45:16;;;;;;;;;;;;;;;14.77;40.24;101011.97;5096644;28;19912;-68
2023/10/24 01:47:42;;;;;;;;;;;;;;;14.77;40.58;101011.97;5078615;28;19919;-68
2023/10/24 01:50:07;;;;;;;;;;;;;;;14.79;40.46;101010.69;5096475;28;19912;-68
2023/10/24 01:52:32;;;;;;;;;;;;;;;14.82;40.51;101013.00;5095985;28;19916;-68
2023/10/24 01:54:58;;;;;;;;;;;;;;;14.84;40.56;101020.88;5095475;28;19912;-68
2023/10/24 01:57:23;;;;;;;;;;;;;;;14.84;40.59;101021.72;5095812;28;20283;-68
2023/10/24 01:59:48;;;;;;;;;;;;;;;14.85;40.15;101019.84;5077205;28;19916;-68
2023/10/24 02:02:13;;;;;;;;;;;;;;;14.86;40.53;101021.53;5095469;28;19912;-68
2023/10/24 02:04:39;;;;;;;;;;;;;;;14.87;40.49;101017.75;5095331;28;20007;-68
2023/10/24 02:07:04;;;;;;;;;;;;;;;14.86;40.58;101016.94;5095853;28;20268;-68
2023/10/24 02:09:31;;;;;;;;;;;;;;;14.90;40.69;101026.28;5095501;28;19919;-68
2023/10/24 02:12:00;;;;;;;;;;;;;;;14.90;40.75;101029.00;5095319;28;20002;-68
2023/10/24 02:14:26;;;;;;;;;;;;;;;14.89;40.89;101027.34;5103774;28;20384;-68
2023/10/24 02:16:51;;;;;;;;;;;;;;;14.92;40.74;101033.38;5116001;28;19947;-68
2023/10/24 02:19:17;;;;;;;;;;;;;;;14.94;40.48;101031.31;5115398;28;20006;-68
2023/10/24 02:21:42;;;;;;;;;;;;;;;14.94;40.83;101029.41;5111076;28;19938;-68
2023/10/24 02:24:07;;;;;;;;;;;;;;;14.96;40.36;101026.50;5095096;28;19916;-68
2023/10/24 02:26:33;;;;;;;;;;;;;;;14.95;40.47;101009.47;5095072;28;19916;-68
2023/10/24 02:28:58;;;;;;;;;;;;;;;14.99;40.56;101018.81;5095067;28;19915;-68
2023/10/24 02:31:23;;;;;;;;;;;;;;;15.00;40.78;101016.94;5093891;28;19912;-68
2023/10/24 02:33:49;;;;;;;;;;;;;;;14.97;40.71;101023.59;5094830;28;19916;-68
2023/10/24 02:36:15;;;;;;;;;;;;;;;14.97;40.76;101031.72;5095096;28;19912;-68
2023/10/24 02:38:41;;;;;;;;;;;;;;;15.00;40.54;101020.47;5095106;28;19916;-68
2023/10/24 02:41:06;;;;;;;;;;;;;;;14.98;40.65;101030.66;5094724;28;20602;-68
2023/10/24 02:43:32;;;;;;;;;;;;;;;14.99;40.65;101028.78;5094498;28;20288;-68
2023/10/24 02:46:00;;;;;;;;;;;;;;;15.04;40.81;101024.44;5094819;28;19993;-68
2023/10/24 02:48:28;;;;;;;;;;;;;;;15.04;40.73;101021.72;5094556;28;19912;-68
2023/10/24 02:50:54;;;;;;;;;;;;;;;15.03;40.78;101019.22;5101420;28;19937;-68
2023/10/24 02:53:20;;;;;;;;;;;;;;;15.06;40.72;101029.59;5114863;28;19918;-68
2023/10/24 02:55:45;;;;;;;;;;;;;;;15.03;40.72;101022.75;5114085;28;19951;-68
2023/10/24 02:58:10;;;;;;;;;;;;;;;15.02;40.77;101021.06;5114710;28;19911;-68
2023/10/24 03:00:35;;;;;;;;;;;;;;;14.98;40.92;101029.84;5103782;28;19919;-68
2023/10/24 03:03:00;;;;;;;;;;;;;;;15.00;40.81;101025.88;5078786;28;20360;-68
2023/10/24 03:05:26;;;;;;;;;;;;;;;15.02;40.71;101031.91;5074296;28;19912;-68
2023/10/24 03:07:52;;;;;;;;;;;;;;;15.02;40.71;101028.38;5084188;28;19912;-68
2023/10/24 03:10:17;;;;;;;;;;;;;;;14.99;40.64;101031.47;5099153;28;20360;-68
2023/10/24 03:12:42;;;;;;;;;;;;;;;15.00;40.88;101025.88;5101945;28;19962;-68
2023/10/24 03:15:08;;;;;;;;;;;;;;;14.98;40.95;101021.72;5094022;28;19919;-68
2023/10/24 03:17:33;;;;;;;;;;;;;;;14.99;40.95;101020.66;5094635;28;19920;-68
2023/10/24 03:19:58;;;;;;;;;;;;;;;15.03;40.76;101021.94;5094168;28;19923;-68
2023/10/24 03:22:23;;;;;;;;;;;;;;;15.02;40.70;101023.78;5094046;28;19939;-68
2023/10/24 03:24:49;;;;;;;;;;;;;;;15.04;40.72;101024.44;5093854;28;19912;-68
2023/10/24 03:27:14;;;;;;;;;;;;;;;15.03;40.68;101025.47;5094202;28;19912;-68
2023/10/24 03:29:42;;;;;;;;;;;;;;;15.07;41.08;101020.47;5093881;28;19954;-68
2023/10/24 03:32:08;;;;;;;;;;;;;;;15.05;40.82;101017.16;5076003;28;19912;-68
2023/10/24 03:34:35;;;;;;;;;;;;;;;15.06;40.77;101019.66;5099758;28;20288;-68
2023/10/24 03:37:00;;;;;;;;;;;;;;;15.09;40.90;101016.50;5093913;28;19912;-68
2023/10/24 03:39:25;;;;;;;;;;;;;;;15.06;40.86;101011.53;5094069;28;19912;-68
2023/10/24 03:41:51;;;;;;;;;;;;;;;15.06;41.05;101013.38;5094083;28;20011;-68
2023/10/24 03:44:16;;;;;;;;;;;;;;;15.08;40.83;101022.13;5096988;28;19960;-68
2023/10/24 03:46:41;;;;;;;;;;;;;;;15.08;40.77;101016.69;5098234;28;19913;-68
2023/10/24 03:49:06;;;;;;;;;;;;;;;15.07;40.84;101013.16;5097799;28;20325;-68
2023/10/24 03:51:32;;;;;;;;;;;;;;;15.02;41.20;101023.78;5110351;28;19922;-68
2023/10/24 03:53:57;;;;;;;;;;;;;;;15.05;41.32;101017.16;5117983;28;19916;-68
2023/10/24 03:56:23;;;;;;;;;;;;;;;15.04;41.14;101029.00;5111126;28;19947;-68
2023/10/24 03:58:48;;;;;;;;;;;;;;;15.05;40.93;101025.25;5097709;28;19912;-68
2023/10/24 04:01:13;;;;;;;;;;;;;;;15.07;41.02;101028.59;5097132;28;20397;-68
2023/10/24 04:03:38;;;;;;;;;;;;;;;15.07;40.78;101029.41;5097491;28;19916;-68
2023/10/24 04:06:08;;;;;;;;;;;;;;;15.08;41.15;101025.66;5097565;28;20316;-68
2023/10/24 04:08:34;;;;;;;;;;;;;;;15.10;40.97;101031.69;5119391;28;19919;-68
2023/10/24 04:11:01;;;;;;;;;;;;;;;15.12;40.86;101026.09;5118370;28;19927;-68
2023/10/24 04:13:27;;;;;;;;;;;;;;;15.13;40.99;101026.91;5117887;28;19912;-68
2023/10/24 04:15:59;;;;;;;;;;;;;;;15.15;40.74;101027.53;5117766;28;20010;-68
2023/10/24 04:18:25;;;;;;;;;;;;;;;15.16;40.91;101016.50;5076894;28;20389;-68
2023/10/24 04:20:53;;;;;;;;;;;;;;;15.17;41.29;101025.44;5077414;28;19916;-68
2023/10/24 04:23:18;;;;;;;;;;;;;;;15.17;40.99;101018.16;5076763;28;19916;-68
2023/10/24 04:25:43;;;;;;;;;;;;;;;15.18;40.88;101030.66;5087944;28;19915;-68
2023/10/24 04:28:09;;;;;;;;;;;;;;;15.19;41.09;101034.19;5078981;28;19912;-68
2023/10/24 04:30:37;;;;;;;;;;;;;;;15.20;40.93;101035.84;5097318;28;19912;-68
2023/10/24 04:33:02;;;;;;;;;;;;;;;15.17;41.08;101037.09;5097420;28;19912;-68
2023/10/24 04:35:28;;;;;;;;;;;;;;;15.18;41.35;101036.06;5102249;28;20002;-68
2023/10/24 04:37:54;;;;;;;;;;;;;;;15.15;41.28;101027.53;5097148;28;19976;-68
2023/10/24 04:40:19;;;;;;;;;;;;;;;14.75;41.30;100971.59;5096760;28;19919;-68
2023/10/24 04:42:45;;;;;;;;;;;;;;;15.19;41.25;101031.47;5096628;28;19916;-68
2023/10/24 04:45:10;;;;;;;;;;;;;;;15.12;41.31;101033.34;5112542;28;20008;-68
2023/10/24 04:47:35;;;;;;;;;;;;;;;15.07;41.14;101029.41;5097002;28;19912;-68
2023/10/24 04:50:01;;;;;;;;;;;;;;;15.07;41.30;101032.09;5097039;28;20348;-68
2023/10/24 04:52:26;;;;;;;;;;;;;;;15.07;41.43;101034.81;5105585;28;20320;-68
2023/10/24 04:54:52;;;;;;;;;;;;;;;15.09;41.41;101038.13;5076497;28;19958;-68
2023/10/24 04:57:17;;;;;;;;;;;;;;;15.14;41.43;101047.53;5091885;28;19912;-68
2023/10/24 04:59:43;;;;;;;;;;;;;;;15.14;41.32;101052.94;5112186;28;20315;-68
2023/10/24 05:02:08;;;;;;;;;;;;;;;15.16;41.17;101048.97;5096222;28;19958;-68
2023/10/24 05:04:33;;;;;;;;;;;;;;;15.16;41.27;101040.03;5116103;28;19911;-68
2023/10/24 05:06:59;;;;;;;;;;;;;;;15.17;41.65;101041.69;5116908;28;19912;-68
2023/10/24 05:09:25;;;;;;;;;;;;;;;15.15;41.55;101041.88;5116842;28;19965;-67
2023/10/24 05:11:50;;;;;;;;;;;;;;;15.15;41.64;101043.75;5116232;28;19972;-67
2023/10/24 05:14:15;;;;;;;;;;;;;;;15.14;41.46;101042.13;5116686;28;20304;-67
2023/10/24 05:16:41;;;;;;;;;;;;;;;15.17;41.77;101050.63;5116689;28;19912;-67
2023/10/24 05:19:08;;;;;;;;;;;;;;;15.18;41.69;101046.06;5116446;28;19992;-67
2023/10/24 05:21:34;;;;;;;;;;;;;;;15.19;41.65;101051.25;5109299;28;19962;-67
2023/10/24 05:23:59;;;;;;;;;;;;;;;15.18;41.87;101049.59;5096171;28;19916;-67
2023/10/24 05:26:24;;;;;;;;;;;;;;;15.21;41.77;101053.72;5095995;28;19911;-67
2023/10/24 05:28:50;;;;;;;;;;;;;;;15.22;41.47;101052.72;5096165;28;19913;-67
2023/10/24 05:31:15;;;;;;;;;;;;;;;15.22;41.48;101056.25;5095908;28;20384;-68
2023/10/24 05:33:41;;;;;;;;;;;;;;;15.23;41.47;101060.63;5095937;28;20018;-67
2023/10/24 05:36:06;;;;;;;;;;;;;;;15.24;41.48;101059.56;5095883;28;19912;-67
2023/10/24 05:38:35;;;;;;;;;;;;;;;15.26;41.69;101067.47;5096004;28;20368;-67
2023/10/24 05:41:00;;;;;;;;;;;;;;;15.28;41.49;101063.53;5096013;28;19935;-67
2023/10/24 05:43:26;;;;;;;;;;;;;;;15.32;41.56;101073.91;5095964;28;20315;-67
2023/10/24 05:45:51;;;;;;;;;;;;;;;15.33;41.25;101071.00;5096025;28;19912;-67
2023/10/24 05:48:16;;;;;;;;;;;;;;;15.34;41.40;101071.84;5095692;28;19916;-67
2023/10/24 05:50:42;;;;;;;;;;;;;;;15.35;41.17;101071.63;5077697;28;19954;-68
2023/10/24 05:53:08;;;;;;;;;;;;;;;15.34;41.13;101075.41;5095694;28;20361;-68
2023/10/24 05:55:33;;;;;;;;;;;;;;;15.31;41.22;101072.28;5094720;28;19919;-68
2023/10/24 05:57:58;;;;;;;;;;;;;;;15.33;41.34;101078.31;5095718;27;19919;-68
2023/10/24 06:00:25;;;;;;;;;;;;;;;15.33;41.49;101078.31;5077938;28;20284;-68
2023/10/24 06:02:50;;;;;;;;;;;;;;;15.33;41.15;101076.41;5074009;28;19921;-68
2023/10/24 06:05:16;;;;;;;;;;;;;;;15.33;41.03;101081.00;5057308;28;19965;-68
2023/10/24 06:07:41;;;;;;;;;;;;;;;15.32;40.94;101084.75;5075077;28;19913;-68
2023/10/24 06:10:07;;;;;;;;;;;;;;;15.24;41.07;101073.09;5074679;28;19942;-68
2023/10/24 06:12:32;;;;;;;;;;;;;;;15.26;41.05;101076.41;5074983;28;19912;-68
2023/10/24 06:14:57;;;;;;;;;;;;;;;15.26;41.31;101076.41;5074703;28;19912;-68
2023/10/24 06:17:23;;;;;;;;;;;;;;;15.26;41.51;101081.81;5094731;28;19920;-68
2023/10/24 06:19:49;;;;;;;;;;;;;;;15.30;41.17;101082.25;5094915;28;19934;-68
2023/10/24 06:22:14;;;;;;;;;;;;;;;15.32;41.23;101087.44;5094760;28;19912;-68
2023/10/24 06:24:40;;;;;;;;;;;;;;;15.30;41.12;101090.38;5095092;28;19957;-68
2023/10/24 06:27:05;;;;;;;;;;;;;;;15.34;40.99;101078.09;5095273;28;20003;-67
2023/10/24 06:29:30;;;;;;;;;;;;;;;15.35;41.32;101084.34;5094959;28;19912;-67
2023/10/24 06:31:56;;;;;;;;;;;;;;;15.35;41.48;101089.75;5078294;28;20016;-67
2023/10/24 06:34:22;;;;;;;;;;;;;;;15.37;41.22;101087.66;5098554;28;19917;-67
2023/10/24 06:36:47;;;;;;;;;;;;;;;15.39;41.33;101094.50;5095786;28;19912;-67
2023/10/24 06:39:12;;;;;;;;;;;;;;;15.43;41.35;101092.22;5094999;28;19942;-67
2023/10/24 06:41:38;;;;;;;;;;;;;;;15.46;41.08;101091.81;5095013;28;19913;-67
2023/10/24 06:44:03;;;;;;;;;;;;;;;15.47;41.33;101093.47;5094219;28;20294;-68
2023/10/24 06:46:28;;;;;;;;;;;;;;;15.50;40.87;101093.06;5110267;28;19912;-68
2023/10/24 06:48:56;;;;;;;;;;;;;;;15.57;40.90;101090.34;5095135;28;19912;-67
2023/10/24 06:51:22;;;;;;;;;;;;;;;15.59;40.77;101094.50;5087381;28;19912;-67
2023/10/24 06:53:47;;;;;;;;;;;;;;;15.62;41.01;101090.53;5097202;28;20470;-67
2023/10/24 06:56:13;;;;;;;;;;;;;;;15.65;41.29;101093.63;5102153;28;20427;-67
2023/10/24 06:58:40;;;;;;;;;;;;;;;15.61;41.02;101087.00;5094393;28;19916;-67
2023/10/24 07:01:06;;;;;;;;;;;;;;;15.64;41.33;101092.00;5076675;28;19919;-67
2023/10/24 07:03:31;;;;;;;;;;;;;;;15.66;40.64;101092.59;5094232;28;19916;-67
2023/10/24 07:05:58;;;;;;;;;;;;;;;15.27;40.80;101029.38;5094575;28;19912;-67
2023/10/24 07:08:23;;;;;;;;;;;;;;;15.63;41.01;101090.31;5094338;28;19974;-68
2023/10/24 07:10:48;;;;;;;;;;;;;;;15.65;40.89;101088.22;5093878;28;19927;-67
2023/10/24 07:13:14;;;;;;;;;;;;;;;15.73;41.13;101083.63;5093908;28;20015;-67
2023/10/24 07:15:39;;;;;;;;;;;;;;;15.81;41.17;101089.69;5073992;28;20339;-67
2023/10/24 07:18:05;;;;;;;;;;;;;;;15.88;41.14;101084.25;5108461;28;20306;-67
2023/10/24 07:20:34;;;;;;;;;;;;;;;15.90;40.78;101084.88;5114647;28;19912;-67
2023/10/24 07:22:59;;;;;;;;;;;;;;;15.84;40.64;101083.84;5098782;28;19966;-67
2023/10/24 07:25:24;;;;;;;;;;;;;;;15.91;41.08;101081.09;5094071;28;19959;-67
2023/10/24 07:27:50;;;;;;;;;;;;;;;15.95;40.75;101086.94;5094173;28;19913;-67
2023/10/24 07:30:15;;;;;;;;;;;;;;;15.99;40.64;101086.31;5093981;28;19916;-68
2023/10/24 07:32:41;;;;;;;;;;;;;;;16.04;40.88;101088.34;5094042;28;19999;-68
2023/10/24 07:35:08;;;;;;;;;;;;;;;16.03;40.79;101092.94;5099142;28;20276;-67
2023/10/24 07:37:35;;;;;;;;;;;;;;;16.03;40.79;101089.41;5094011;28;19927;-68
2023/10/24 07:40:01;;;;;;;;;;;;;;;16.00;40.97;101079.00;5093646;28;19919;-68
2023/10/24 07:42:26;;;;;;;;;;;;;;;16.09;40.69;101095.84;5094064;28;19912;-68
2023/10/24 07:44:53;;;;;;;;;;;;;;;16.13;41.00;101094.38;5094123;28;19916;-68
2023/10/24 07:47:18;;;;;;;;;;;;;;;16.12;40.72;101096.25;5093654;28;19912;-67
2023/10/24 07:49:43;;;;;;;;;;;;;;;16.16;40.70;101104.78;5093787;28;19912;-68
2023/10/24 07:52:09;;;;;;;;;;;;;;;16.15;40.60;101101.22;5110813;28;20014;-67
2023/10/24 07:54:34;;;;;;;;;;;;;;;16.15;40.84;101101.22;5095506;28;19912;-67
2023/10/24 07:57:00;;;;;;;;;;;;;;;16.20;40.33;101103.31;5085005;28;19912;-68
2023/10/24 07:59:25;;;;;;;;;;;;;;;16.22;40.85;101106.63;5093679;28;20007;-68
2023/10/24 08:01:50;;;;;;;;;;;;;;;16.25;40.78;101107.03;5071911;28;19923;-68
2023/10/24 08:04:15;;;;;;;;;;;;;;;16.30;40.33;101110.97;5073359;28;19916;-67
2023/10/24 08:06:41;;;;;;;;;;;;;;;16.33;40.42;101116.78;5073307;28;19920;-67
2023/10/24 08:09:06;;;;;;;;;;;;;;;16.29;40.09;101115.56;5073333;28;20366;-67
2023/10/24 08:11:31;;;;;;;;;;;;;;;16.28;40.07;101119.31;5090275;28;19924;-67
2023/10/24 08:13:56;;;;;;;;;;;;;;;16.30;40.45;101117.22;5093776;28;20355;-67
2023/10/24 08:16:22;;;;;;;;;;;;;;;16.35;40.58;101116.59;5096636;28;19915;-68
2023/10/24 08:18:47;;;;;;;;;;;;;;;16.37;40.30;101131.56;5114302;28;19912;-68
2023/10/24 08:21:12;;;;;;;;;;;;;;;16.30;40.46;101133.47;5114475;28;19916;-68
2023/10/24 08:23:38;;;;;;;;;;;;;;;16.36;40.29;101127.22;5113934;28;19920;-68
2023/10/24 08:26:03;;;;;;;;;;;;;;;16.36;40.52;101131.78;5081863;28;19961;-68
2023/10/24 08:28:29;;;;;;;;;;;;;;;16.34;39.97;101131.16;5094027;28;19912;-68
2023/10/24 08:30:54;;;;;;;;;;;;;;;16.34;40.15;101128.47;5097149;28;19924;-68
2023/10/24 08:33:20;;;;;;;;;;;;;;;16.41;39.78;101142.81;5097210;28;20368;-68
2023/10/24 08:35:46;;;;;;;;;;;;;;;16.46;40.10;101132.16;5102827;28;19919;-68
2023/10/24 08:38:11;;;;;;;;;;;;;;;16.53;39.83;101134.81;5079015;28;20022;-67
2023/10/24 08:40:37;;;;;;;;;;;;;;;16.54;39.66;101128.38;5097322;28;19912;-68
2023/10/24 08:43:03;;;;;;;;;;;;;;;16.55;40.13;101130.03;5097067;28;19916;-68
2023/10/24 08:45:30;;;;;;;;;;;;;;;16.51;39.50;101128.78;5096855;28;19916;-68
2023/10/24 08:47:56;;;;;;;;;;;;;;;16.51;39.62;101137.78;5103298;28;19933;-68
2023/10/24 08:50:21;;;;;;;;;;;;;;;16.47;39.93;101136.53;5117567;28;20018;-68
2023/10/24 08:52:47;;;;;;;;;;;;;;;16.37;39.77;101130.75;5117863;28;19911;-68
2023/10/24 08:55:12;;;;;;;;;;;;;;;16.42;40.37;101128.22;5116863;28;20411;-68
2023/10/24 08:57:41;;;;;;;;;;;;;;;16.47;39.89;101135.69;5100964;28;19912;-68
2023/10/24 09:00:10;;;;;;;;;;;;;;;16.42;40.09;101131.75;5098036;28;19916;-68
2023/10/24 09:02:36;;;;;;;;;;;;;;;16.43;40.15;101141.53;5097096;28;19923;-68
2023/10/24 09:05:01;;;;;;;;;;;;;;;16.45;40.36;101144.91;5097158;28;19912;-68
2023/10/24 09:07:27;;;;;;;;;;;;;;;16.48;40.23;101140.91;5096243;28;19915;-68
2023/10/24 09:09:53;;;;;;;;;;;;;;;16.51;40.32;101142.34;5096152;28;19912;-68
2023/10/24 09:12:18;;;;;;;;;;;;;;;16.53;40.32;101137.53;5096829;28;19923;-68
2023/10/24 09:14:46;;;;;;;;;;;;;;;16.55;39.82;101127.34;5099477;28;19937;-68
2023/10/24 09:17:14;;;;;;;;;;;;;;;16.53;39.86;101145.66;5098177;28;19919;-68
2023/10/24 09:19:40;;;;;;;;;;;;;;;16.56;39.82;101137.13;5097095;28;20395;-68
2023/10/24 09:22:05;;;;;;;;;;;;;;;16.59;39.70;101142.94;5096909;28;19912;-68
2023/10/24 09:24:31;;;;;;;;;;;;;;;16.61;39.94;101143.53;5078163;28;19965;-68
2023/10/24 09:26:56;;;;;;;;;;;;;;;16.62;39.74;101145.22;5096063;28;19916;-68
2023/10/24 09:29:24;;;;;;;;;;;;;;;16.63;39.84;101146.03;5111575;28;19926;-68
2023/10/24 09:31:50;;;;;;;;;;;;;;;16.67;39.87;101146.44;5096132;28;19919;-68
2023/10/24 09:34:18;;;;;;;;;;;;;;;16.64;39.75;101145.84;5098351;28;19919;-68
2023/10/24 09:36:44;;;;;;;;;;;;;;;16.70;39.67;101151.44;5098263;28;20363;-68
2023/10/24 09:39:10;;;;;;;;;;;;;;;16.75;39.74;101148.88;5096074;28;19948;-68
2023/10/24 09:41:37;;;;;;;;;;;;;;;16.81;39.93;101151.56;5094750;28;19912;-68
2023/10/24 09:44:02;;;;;;;;;;;;;;;16.83;39.59;101149.50;5100737;28;19916;-68
2023/10/24 09:46:28;;;;;;;;;;;;;;;16.83;39.42;101146.78;5116536;28;19919;-68
2023/10/24 09:48:55;;;;;;;;;;;;;;;16.90;39.90;101148.63;5098569;28;19938;-68
2023/10/24 09:51:21;;;;;;;;;;;;;;;16.91;39.43;101158.44;5116099;28;19912;-68
2023/10/24 09:53:47;;;;;;;;;;;;;;;16.95;39.72;101148.81;5096808;28;20006;-68
2023/10/24 09:56:12;;;;;;;;;;;;;;;16.94;39.71;101155.28;5096896;28;19951;-67
2023/10/24 09:58:41;;;;;;;;;;;;;;;17.00;39.49;101151.69;5096426;28;20010;-67
2023/10/24 10:01:06;;;;;;;;;;;;;;;17.09;39.54;101153.09;5096003;28;20007;-67
2023/10/24 10:03:34;;;;;;;;;;;;;;;17.18;39.51;101151.78;5095552;28;20010;-67
2023/10/24 10:06:02;;;;;;;;;;;;;;;17.08;38.84;101129.72;5095383;28;19916;-67
2023/10/24 10:08:27;;;;;;;;;;;;;;;17.18;38.50;101140.91;5095639;28;19912;-67
2023/10/24 10:10:53;;;;;;;;;;;;;;;17.16;38.46;101140.31;5095662;28;19931;-67
2023/10/24 10:13:22;;;;;;;;;;;;;;;17.22;39.14;101139.41;5095335;28;19912;-68
2023/10/24 10:15:53;;;;;;;;;;;;;;;17.19;38.22;101139.03;5077096;28;19933;-68
2023/10/24 10:18:19;;;;;;;;;;;;;;;17.17;38.72;101141.97;5095306;28;19912;-67
2023/10/24 10:20:48;;;;;;;;;;;;;;;17.22;39.08;101135.88;5095322;28;19919;-67
2023/10/24 10:23:17;;;;;;;;;;;;;;;17.21;38.19;101137.75;5094978;28;20072;-67
2023/10/24 10:25:49;;;;;;;;;;;;;;;17.12;37.92;101139.06;5095119;28;19912;-68
2023/10/24 10:28:34;;;;;;;;;;;;;;;16.95;38.21;101143.38;5094948;28;19918;-67
2023/10/24 10:31:02;;;;;;;;;;;;;;;16.94;38.93;101142.56;5095046;28;19912;-67
2023/10/24 10:33:27;;;;;;;;;;;;;;;16.98;38.95;101137.53;5095340;28;19942;-68
2023/10/24 10:35:58;;;;;;;;;;;;;;;17.00;38.64;101136.25;5100313;28;20344;-67
2023/10/24 10:38:24;;;;;;;;;;;;;;;16.99;38.31;101140.03;5094785;28;19942;-67
2023/10/24 10:40:49;;;;;;;;;;;;;;;17.04;38.29;101136.63;5104547;28;20377;-67
2023/10/24 10:43:31;;;;;;;;;;;;;;;17.00;38.01;101133.53;5097175;28;19959;-67
2023/10/24 10:46:15;;;;;;;;;;;;;;;17.09;38.11;101130.56;5094794;28;19982;-68
2023/10/24 10:48:41;;;;;;;;;;;;;;;17.17;38.12;101133.00;5094652;28;20383;-68
2023/10/24 10:51:07;;;;;;;;;;;;;;;17.15;37.88;101137.81;5103003;28;19943;-68
2023/10/24 10:53:41;;;;;;;;;;;;;;;17.11;38.26;101137.41;5113932;28;19919;-68
2023/10/24 10:56:20;;;;;;;;;;;;;;;17.15;37.93;101130.50;5096081;28;19919;-68
2023/10/24 10:58:45;;;;;;;;;;;;;;;17.02;38.22;101125.16;5110725;28;19923;-68
2023/10/24 11:01:29;;;;;;;;;;;;;;;16.92;37.94;101130.25;5094929;28;19916;-68
2023/10/24 11:03:56;;;;;;;;;;;;;;;16.92;38.03;101127.53;5074200;28;19917;-68
2023/10/24 11:06:23;;;;;;;;;;;;;;;16.86;38.20;101129.22;5074452;28;19920;-68
2023/10/24 11:09:18;;;;;;;;;;;;;;;16.80;38.23;101120.06;5075038;28;20003;-68
2023/10/24 11:11:43;;;;;;;;;;;;;;;16.80;38.62;101116.53;5061022;28;20022;-68
2023/10/24 11:14:20;;;;;;;;;;;;;;;16.87;38.38;101113.81;5074146;28;19920;-68
2023/10/24 11:16:50;;;;;;;;;;;;;;;16.92;38.36;101116.66;5085148;28;19912;-68
2023/10/24 11:19:19;;;;;;;;;;;;;;;16.95;38.41;101117.06;5075998;28;20060;-67
2023/10/24 11:21:46;;;;;;;;;;;;;;;16.91;38.10;101124.00;5076607;28;19920;-68
2023/10/24 11:24:17;;;;;;;;;;;;;;;16.91;38.31;101121.28;5094088;28;20262;-68
2023/10/24 11:26:43;;;;;;;;;;;;;;;16.82;38.64;101120.69;5093892;28;19921;-68
2023/10/24 11:29:09;;;;;;;;;;;;;;;16.75;38.21;101121.75;5094214;28;20368;-68
2023/10/24 11:31:35;;;;;;;;;;;;;;;16.62;38.63;101126.25;5094426;28;19918;-68
2023/10/24 11:34:01;;;;;;;;;;;;;;;16.62;38.57;101128.09;5075753;28;20006;-68
2023/10/24 11:36:27;;;;;;;;;;;;;;;16.66;38.46;101126.63;5097560;28;19912;-68
2023/10/24 11:38:52;;;;;;;;;;;;;;;16.63;38.30;101118.94;5114248;28;19915;-68
2023/10/24 11:41:17;;;;;;;;;;;;;;;16.57;38.27;101122.53;5106279;28;19912;-68
2023/10/24 11:43:43;;;;;;;;;;;;;;;16.66;38.25;101121.22;5093065;28;19920;-68
2023/10/24 11:46:09;;;;;;;;;;;;;;;16.78;37.88;101121.34;5093282;28;19974;-68
2023/10/24 11:48:35;;;;;;;;;;;;;;;16.86;37.61;101123.00;5093934;28;20006;-68
2023/10/24 11:51:02;;;;;;;;;;;;;;;17.01;37.59;101124.34;5101662;28;19926;-68
2023/10/24 11:53:27;;;;;;;;;;;;;;;17.06;37.77;101131.00;5129771;28;19912;-68
2023/10/24 11:55:53;;;;;;;;;;;;;;;17.17;37.34;101124.84;5101616;28;20360;-68
2023/10/24 11:58:19;;;;;;;;;;;;;;;17.18;37.19;101121.91;5093673;28;19916;-69
2023/10/24 12:00:44;;;;;;;;;;;;;;;17.31;37.19;101122.84;5093795;28;19957;-69
2023/10/24 12:03:10;;;;;;;;;;;;;;;17.41;37.12;101121.28;5093359;28;20001;-68
2023/10/24 12:05:36;;;;;;;;;;;;;;;17.53;36.86;101126.84;5097152;28;19998;-68
2023/10/24 12:08:02;;;;;;;;;;;;;;;17.57;36.26;101128.03;5097770;28;19918;-69
2023/10/24 12:10:32;;;;;;;;;;;;;;;17.58;36.23;101129.69;5097524;28;19924;-67
2023/10/24 12:12:59;;;;;;;;;;;;;;;17.64;36.06;101124.41;5097601;28;19912;-68
2023/10/24 12:15:25;;;;;;;;;;;;;;;17.54;35.30;101130.38;5097417;28;20011;-67
2023/10/24 12:17:51;;;;;;;;;;;;;;;17.48;36.17;101131.28;5098149;28;19919;-67
2023/10/24 12:20:16;;;;;;;;;;;;;;;17.35;35.83;101129.50;5097339;28;19924;-67
2023/10/24 12:22:46;;;;;;;;;;;;;;;17.32;36.06;101127.22;5097170;28;19916;-67
2023/10/24 12:25:11;;;;;;;;;;;;;;;17.10;36.04;101116.75;5097117;28;19912;-68
2023/10/24 12:27:37;;;;;;;;;;;;;;;17.02;36.05;101123.28;5097725;28;20367;-68
2023/10/24 12:30:02;;;;;;;;;;;;;;;16.81;36.24;101119.03;5097026;28;20387;-68